Terminal Aerodrome Forecast
Issued by NWS

Home | Current Version | Previous Version | Text Only | Print | Product List | Glossary On
Versions: 1 2 3 4 5 6 7 8 9 10 11 12 13 14 15 16 17 18 19 20
000
FTUS46 KSEW 252320
TAFPAE
TAF
KPAE 252320Z 2600/2624 18010KT P6SM SCT035 BKN050
     FM260200 16005KT P6SM SCT035 SCT050
     FM260600 15006KT P6SM SCT050 BKN200
     FM261200 13007KT P6SM BKN070 OVC120
     FM261800 15010KT P6SM -RA BKN045 OVC070=

USA.gov is the U.S. government's official web portal to all federal, state and local government web resources and services.